createdAt,value
2022-09-16T00:00:55.530Z,4.43
2022-09-16T00:03:23.662Z,4.53
2022-09-16T00:05:52.925Z,5.90
2022-09-16T00:08:21.227Z,3.95
2022-09-16T00:10:49.458Z,4.25
2022-09-16T00:13:17.523Z,4.63
2022-09-16T00:15:45.826Z,4.90
2022-09-16T00:18:15.339Z,3.75
2022-09-16T00:20:46.676Z,4.18
2022-09-16T00:23:14.761Z,4.00
2022-09-16T00:25:42.873Z,5.38
2022-09-16T00:28:10.929Z,4.90
2022-09-16T00:30:39.024Z,3.55
2022-09-16T00:33:07.112Z,3.65
2022-09-16T00:35:36.569Z,3.45
2022-09-16T00:38:04.697Z,3.97
2022-09-16T00:40:32.839Z,4.93
2022-09-16T00:43:01.252Z,3.20
2022-09-16T00:45:31.754Z,4.53
2022-09-16T00:48:00.801Z,5.00
2022-09-16T00:50:32.458Z,5.50
2022-09-16T00:53:02.019Z,4.60
2022-09-16T00:55:31.541Z,7.60
2022-09-16T00:58:04.173Z,8.13
2022-09-16T01:00:33.757Z,3.42
2022-09-16T01:03:01.854Z,5.40
2022-09-16T01:05:30.062Z,3.25
2022-09-16T01:07:58.376Z,3.92
2022-09-16T01:10:27.866Z,3.65
2022-09-16T01:12:56.853Z,4.88
2022-09-16T01:15:25.592Z,6.70
2022-09-16T01:17:58.891Z,4.30
2022-09-16T01:21:09.128Z,2.58
2022-09-16T01:24:04.142Z,4.55
2022-09-16T01:27:02.720Z,2.55
2022-09-16T01:29:49.278Z,3.17
2022-09-16T01:32:20.592Z,2.45
2022-09-16T01:34:51.533Z,2.40
2022-09-16T01:37:23.891Z,2.85
2022-09-16T01:39:59.149Z,3.53
2022-09-16T01:42:31.158Z,2.47
2022-09-16T01:45:01.944Z,3.35
2022-09-16T01:47:35.256Z,3.35
2022-09-16T01:50:07.095Z,3.22
2022-09-16T01:52:43.111Z,3.78
2022-09-16T01:55:12.464Z,3.70
2022-09-16T01:57:42.510Z,3.65
2022-09-16T02:00:11.921Z,3.92
2022-09-16T02:02:43.134Z,3.78
2022-09-16T02:05:13.140Z,3.55
2022-09-16T02:07:44.820Z,4.63
2022-09-16T02:10:16.426Z,7.50
2022-09-16T02:12:44.605Z,2.70
2022-09-16T02:15:18.734Z,1.95
2022-09-16T02:17:50.297Z,5.72
2022-09-16T02:20:21.009Z,3.15
2022-09-16T02:22:50.175Z,3.00
2022-09-16T02:25:18.772Z,3.25
2022-09-16T02:27:48.347Z,2.10
2022-09-16T02:30:17.619Z,2.45
2022-09-16T02:32:48.610Z,2.65
2022-09-16T02:35:17.743Z,2.38
2022-09-16T02:37:47.491Z,2.67
2022-09-16T02:40:17.350Z,3.08
2022-09-16T02:42:45.416Z,3.35
2022-09-16T02:45:13.619Z,3.78
2022-09-16T02:47:46.207Z,2.35
2022-09-16T02:50:17.317Z,2.17
2022-09-16T02:52:46.400Z,3.50
2022-09-16T02:55:16.607Z,2.20
2022-09-16T02:57:44.720Z,5.55
2022-09-16T03:00:13.246Z,2.00
2022-09-16T03:02:41.363Z,2.03
2022-09-16T03:05:09.763Z,2.88
2022-09-16T03:07:39.968Z,4.70
2022-09-16T03:10:08.476Z,4.10
2022-09-16T03:12:49.695Z,4.53
2022-09-16T03:15:29.659Z,2.63
2022-09-16T03:18:15.045Z,2.72
2022-09-16T03:20:45.750Z,2.90
2022-09-16T03:23:20.056Z,2.50
2022-09-16T03:25:53.121Z,2.28
2022-09-16T03:28:24.219Z,4.03
2022-09-16T03:30:59.508Z,2.20
2022-09-16T03:33:29.537Z,2.65
2022-09-16T03:35:58.588Z,3.03
2022-09-16T03:38:28.499Z,13.02
2022-09-16T03:40:56.566Z,2.13
2022-09-16T03:43:24.629Z,3.92
2022-09-16T03:45:52.911Z,2.78
2022-09-16T03:48:21.044Z,2.80
2022-09-16T03:50:49.249Z,3.67
2022-09-16T03:53:17.601Z,2.83
2022-09-16T03:55:49.418Z,4.72
2022-09-16T03:58:17.588Z,2.53
2022-09-16T04:00:50.836Z,2.65
2022-09-16T04:03:19.047Z,1.98
2022-09-16T04:05:47.580Z,2.83
2022-09-16T04:08:15.669Z,3.60
2022-09-16T04:10:43.816Z,1.90
2022-09-16T04:13:13.405Z,2.08
2022-09-16T04:15:41.516Z,1.90
2022-09-16T04:18:09.701Z,1.85
2022-09-16T04:20:37.805Z,2.80
2022-09-16T04:23:05.896Z,1.90
2022-09-16T04:25:34.147Z,3.88
2022-09-16T04:28:02.660Z,2.20
2022-09-16T04:30:32.115Z,3.83
2022-09-16T04:33:00.260Z,1.55
2022-09-16T04:35:28.305Z,2.47
2022-09-16T04:37:56.433Z,3.65
2022-09-16T04:40:24.937Z,3.58
2022-09-16T04:42:53.087Z,1.88
2022-09-16T04:45:21.106Z,4.72
2022-09-16T04:47:50.612Z,3.50
2022-09-16T04:50:18.872Z,2.50
2022-09-16T04:52:47.107Z,3.50
2022-09-16T04:55:15.320Z,2.08
2022-09-16T04:57:43.661Z,6.68
2022-09-16T05:00:12.841Z,4.22
2022-09-16T05:02:41.070Z,5.50
2022-09-16T05:05:12.011Z,19.13
2022-09-16T05:07:40.321Z,3.00
2022-09-16T05:10:09.438Z,3.58
2022-09-16T05:12:37.601Z,3.83
2022-09-16T05:15:06.376Z,8.27
2022-09-16T05:17:50.343Z,2.72
2022-09-16T05:20:20.830Z,2.53
2022-09-16T05:22:51.256Z,2.45
2022-09-16T05:25:19.642Z,3.60
2022-09-16T05:27:48.108Z,3.33
2022-09-16T05:30:17.439Z,2.53
2022-09-16T05:32:45.515Z,4.53
2022-09-16T05:35:14.039Z,2.97
2022-09-16T05:37:43.474Z,2.42
2022-09-16T05:40:12.036Z,4.20
2022-09-16T05:42:40.133Z,1.80
2022-09-16T05:45:09.706Z,4.10
2022-09-16T05:47:37.750Z,3.00
2022-09-16T05:50:06.541Z,7.15
2022-09-16T05:52:34.568Z,9.30
2022-09-16T05:55:04.106Z,9.43
2022-09-16T05:57:32.260Z,8.30
2022-09-16T06:00:00.336Z,5.90
2022-09-16T06:02:28.411Z,5.38
2022-09-16T06:04:56.534Z,7.22
2022-09-16T06:07:24.679Z,7.40
2022-09-16T06:09:53.133Z,12.05
2022-09-16T06:12:22.535Z,10.48
2022-09-16T06:14:50.601Z,8.00
2022-09-16T06:17:18.937Z,6.05
2022-09-16T06:19:47.003Z,9.27
2022-09-16T06:22:15.030Z,9.25
2022-09-16T06:24:43.154Z,6.70
2022-09-16T06:27:11.211Z,5.40
2022-09-16T06:29:40.988Z,5.88
2022-09-16T06:32:09.037Z,4.45
2022-09-16T06:34:37.124Z,7.68
2022-09-16T06:37:05.306Z,9.75
2022-09-16T06:39:33.479Z,8.02
2022-09-16T06:42:01.610Z,7.28
2022-09-16T06:44:42.850Z,7.70
2022-09-16T06:47:11.081Z,9.88
2022-09-16T06:49:39.182Z,11.35
2022-09-16T06:52:09.532Z,13.18
2022-09-16T06:54:37.613Z,13.13
2022-09-16T06:57:11.392Z,22.70
2022-09-16T06:59:40.588Z,21.75
2022-09-16T07:02:10.874Z,21.92
2022-09-16T07:04:39.055Z,21.45
2022-09-16T07:07:10.098Z,20.10
2022-09-16T07:09:38.773Z,17.50
2022-09-16T07:12:07.069Z,17.65
2022-09-16T07:14:35.164Z,16.02
2022-09-16T07:17:03.490Z,15.95
2022-09-16T07:19:33.059Z,14.15
2022-09-16T07:22:01.130Z,29.13
2022-09-16T07:24:29.189Z,17.35
2022-09-16T07:26:57.297Z,16.17
2022-09-16T07:29:25.430Z,19.50
2022-09-16T07:31:53.550Z,15.73
2022-09-16T07:34:21.614Z,12.57
2022-09-16T07:36:51.045Z,15.80
2022-09-16T07:39:19.649Z,13.98
2022-09-16T07:41:48.660Z,13.23
2022-09-16T07:44:17.405Z,13.68
2022-09-16T07:46:45.558Z,13.52
2022-09-16T07:49:14.877Z,12.40
2022-09-16T07:51:42.994Z,16.02
2022-09-16T07:54:13.342Z,12.68
2022-09-16T07:56:41.631Z,10.93
2022-09-16T07:59:15.809Z,14.68
2022-09-16T08:01:46.988Z,13.07
2022-09-16T08:04:15.140Z,14.75
2022-09-16T08:06:43.211Z,14.45
2022-09-16T08:09:37.154Z,11.15
2022-09-16T08:12:01.031Z,13.30
2022-09-16T08:14:29.126Z,12.10
2022-09-16T08:16:57.230Z,13.93
2022-09-16T08:19:25.285Z,15.63
2022-09-16T08:21:53.366Z,14.02
2022-09-16T08:24:23.058Z,14.95
2022-09-16T08:26:51.230Z,12.23
2022-09-16T08:29:19.424Z,12.88
2022-09-16T08:31:47.599Z,11.77
2022-09-16T08:34:16.869Z,15.50
2022-09-16T08:36:45.024Z,11.80
2022-09-16T08:39:13.087Z,13.25
2022-09-16T08:41:49.698Z,14.90
2022-09-16T08:44:23.302Z,15.20
2022-09-16T08:46:52.813Z,13.95
2022-09-16T08:49:26.847Z,12.38
2022-09-16T08:51:55.187Z,9.68
2022-09-16T08:54:28.118Z,14.10
2022-09-16T08:57:01.041Z,12.70
2022-09-16T08:59:31.755Z,16.92
2022-09-16T09:02:09.301Z,21.27
2022-09-16T09:04:37.934Z,20.15
2022-09-16T09:07:09.447Z,21.23
2022-09-16T09:09:45.462Z,23.55
2022-09-16T09:12:17.086Z,30.55
2022-09-16T09:14:55.136Z,34.25
2022-09-16T09:17:25.930Z,30.15
2022-09-16T09:20:04.475Z,32.10
2022-09-16T09:22:41.806Z,34.60
2022-09-16T09:25:24.248Z,24.75
2022-09-16T09:28:00.689Z,27.15
2022-09-16T09:30:29.449Z,33.28
2022-09-16T09:33:41.601Z,37.45
2022-09-16T09:36:30.902Z,37.17
2022-09-16T09:39:20.070Z,31.38
2022-09-16T09:41:49.374Z,29.77
2022-09-16T09:44:34.382Z,28.38
2022-09-16T09:47:04.358Z,28.05
2022-09-16T09:49:34.029Z,27.45
2022-09-16T09:52:03.713Z,22.65
2022-09-16T09:54:32.852Z,24.52
2022-09-16T09:57:03.047Z,18.85
2022-09-16T09:59:34.522Z,12.27
2022-09-16T10:02:02.870Z,6.72
2022-09-16T10:04:31.631Z,6.60
2022-09-16T10:06:59.791Z,5.25
2022-09-16T10:09:28.014Z,5.18
2022-09-16T10:11:56.823Z,4.65
2022-09-16T10:14:26.818Z,4.35
2022-09-16T10:16:56.247Z,2.30
2022-09-16T10:19:25.463Z,3.10
2022-09-16T10:21:54.807Z,4.25
2022-09-16T10:24:31.382Z,3.95
2022-09-16T10:26:59.814Z,4.88
2022-09-16T10:29:27.958Z,3.90
2022-09-16T10:31:59.426Z,3.08
2022-09-16T10:34:34.988Z,13.20
2022-09-16T10:37:04.745Z,14.85
2022-09-16T10:39:32.959Z,11.75
2022-09-16T10:42:01.558Z,10.98
2022-09-16T10:44:30.439Z,12.60
2022-09-16T10:47:01.826Z,11.10
2022-09-16T10:49:36.892Z,10.77
2022-09-16T10:52:10.325Z,8.85
2022-09-16T10:54:38.409Z,9.30
2022-09-16T10:57:23.344Z,12.52
2022-09-16T11:00:02.269Z,7.65
2022-09-16T11:02:53.706Z,9.35
2022-09-16T11:05:42.485Z,10.43
2022-09-16T11:08:14.338Z,8.85
2022-09-16T11:10:46.378Z,5.13
2022-09-16T11:13:35.294Z,7.20
2022-09-16T11:16:24.033Z,7.88
2022-09-16T11:18:58.887Z,8.15
2022-09-16T11:21:45.252Z,9.30
2022-09-16T11:24:21.101Z,7.85
2022-09-16T11:26:52.942Z,6.75
2022-09-16T11:29:41.684Z,7.57
2022-09-16T11:32:14.627Z,8.32
2022-09-16T11:34:53.953Z,8.07
2022-09-16T11:37:24.729Z,6.72
2022-09-16T11:40:02.351Z,5.00
2022-09-16T11:42:33.854Z,8.27
2022-09-16T11:45:07.579Z,6.18
2022-09-16T11:47:43.019Z,6.70
2022-09-16T11:50:21.411Z,5.70
2022-09-16T11:53:05.805Z,5.30
2022-09-16T11:55:42.366Z,5.20
2022-09-16T11:58:16.571Z,5.00
2022-09-16T12:00:45.420Z,5.05
2022-09-16T12:03:18.837Z,4.60
2022-09-16T12:05:53.560Z,5.22
2022-09-16T12:08:24.079Z,3.83
2022-09-16T12:10:53.719Z,3.75
2022-09-16T12:13:23.656Z,5.00
2022-09-16T12:15:53.291Z,3.70
2022-09-16T12:18:23.655Z,5.55
2022-09-16T12:20:54.713Z,4.78
2022-09-16T12:23:25.357Z,4.20
2022-09-16T12:26:01.414Z,4.60
2022-09-16T12:28:33.181Z,5.35
2022-09-16T12:31:04.461Z,4.32
2022-09-16T12:33:35.360Z,3.90
2022-09-16T12:36:06.501Z,4.10
2022-09-16T12:38:34.653Z,3.67
2022-09-16T12:41:10.874Z,5.20
2022-09-16T12:44:30.527Z,3.90
2022-09-16T12:47:05.949Z,3.67
2022-09-16T12:50:09.440Z,4.82
2022-09-16T12:52:55.721Z,4.53
2022-09-16T12:55:53.905Z,3.80
2022-09-16T12:59:02.655Z,4.93
2022-09-16T13:01:31.845Z,4.75
2022-09-16T13:04:01.883Z,4.00
2022-09-16T13:06:31.128Z,3.67
2022-09-16T13:09:11.401Z,3.50
2022-09-16T13:12:24.157Z,5.38
2022-09-16T13:14:30.157Z,3.85
2022-09-16T13:16:59.427Z,4.72
2022-09-16T13:19:36.439Z,3.50
2022-09-16T13:22:14.295Z,3.50
2022-09-16T13:24:45.754Z,3.97
2022-09-16T13:27:32.846Z,3.70
2022-09-16T13:30:26.954Z,4.03
2022-09-16T13:33:16.894Z,4.78
2022-09-16T13:35:45.897Z,4.32
2022-09-16T13:38:26.270Z,4.07
2022-09-16T13:40:57.135Z,3.20
2022-09-16T13:43:36.078Z,3.80
2022-09-16T13:46:06.934Z,7.38
2022-09-16T13:48:41.526Z,6.70
2022-09-16T13:51:15.109Z,7.93
2022-09-16T13:53:46.037Z,7.07
2022-09-16T13:56:50.498Z,6.43
2022-09-16T13:59:26.712Z,5.90
2022-09-16T14:02:00.463Z,5.75
2022-09-16T14:04:36.246Z,5.85
2022-09-16T14:07:12.514Z,5.20
2022-09-16T14:09:47.925Z,7.50
2022-09-16T14:12:28.795Z,6.32
2022-09-16T14:14:58.901Z,6.60
2022-09-16T14:17:28.575Z,7.28
2022-09-16T14:19:58.528Z,4.90
2022-09-16T14:22:27.636Z,6.20
2022-09-16T14:25:06.317Z,6.22
2022-09-16T14:27:39.508Z,6.15
2022-09-16T14:30:14.282Z,6.20
2022-09-16T14:32:42.377Z,6.10
2022-09-16T14:35:12.184Z,5.03
2022-09-16T14:37:40.612Z,6.63
2022-09-16T14:40:13.212Z,8.55
2022-09-16T14:42:44.255Z,5.93
2022-09-16T14:45:16.427Z,8.52
2022-09-16T14:47:51.701Z,5.65
2022-09-16T14:50:21.714Z,10.85
2022-09-16T14:52:54.806Z,6.13
2022-09-16T14:55:23.985Z,9.10
2022-09-16T14:57:53.453Z,5.90
2022-09-16T15:00:21.845Z,10.18
2022-09-16T15:02:51.208Z,5.68
2022-09-16T15:05:23.069Z,5.60
2022-09-16T15:08:12.716Z,7.28
2022-09-16T15:10:54.955Z,19.42
2022-09-16T15:13:26.837Z,77.80
2022-09-16T15:15:56.357Z,84.63
2022-09-16T15:18:27.043Z,83.88
2022-09-16T15:21:01.170Z,69.93
2022-09-16T15:23:29.289Z,47.83
2022-09-16T15:25:58.390Z,37.00
2022-09-16T15:28:27.978Z,38.35
2022-09-16T15:30:58.338Z,40.22
2022-09-16T15:33:32.426Z,39.03
2022-09-16T15:36:01.751Z,36.63
2022-09-16T15:38:30.127Z,37.35
2022-09-16T15:41:05.075Z,35.70
2022-09-16T15:43:39.905Z,36.28
2022-09-16T15:46:16.321Z,125.90
2022-09-16T15:48:45.541Z,166.75
2022-09-16T15:51:28.356Z,171.88
2022-09-16T15:53:59.672Z,148.82
2022-09-16T15:56:29.899Z,133.68
2022-09-16T15:59:00.790Z,122.57
2022-09-16T16:01:41.495Z,118.80
2022-09-16T16:04:10.578Z,111.07
2022-09-16T16:06:49.697Z,111.88
2022-09-16T16:09:42.686Z,109.00
2022-09-16T16:12:14.592Z,100.28
2022-09-16T16:14:44.371Z,98.00
2022-09-16T16:17:14.628Z,98.68
2022-09-16T16:19:43.566Z,97.63
2022-09-16T16:22:12.108Z,91.57
2022-09-16T16:24:40.475Z,87.78
2022-09-16T16:27:08.788Z,89.05
2022-09-16T16:29:38.858Z,88.47
2022-09-16T16:32:09.601Z,85.80
2022-09-16T16:34:38.340Z,80.72
2022-09-16T16:37:07.449Z,80.97
2022-09-16T16:39:35.741Z,71.93
2022-09-16T16:42:05.567Z,74.03
2022-09-16T16:44:33.681Z,88.65
2022-09-16T16:47:01.915Z,244.85
2022-09-16T16:49:31.431Z,240.27
2022-09-16T16:51:59.517Z,223.98
2022-09-16T16:54:27.816Z,196.57
2022-09-16T16:56:56.022Z,174.40
2022-09-16T16:59:24.046Z,165.63
2022-09-16T17:01:53.262Z,153.20
2022-09-16T17:04:21.603Z,153.98
2022-09-16T17:07:08.242Z,150.40
2022-09-16T17:09:39.302Z,154.32
2022-09-16T17:12:09.343Z,161.73
2022-09-16T17:14:37.585Z,158.38
2022-09-16T17:17:05.820Z,304.63
2022-09-16T17:19:34.041Z,362.00
2022-09-16T17:22:03.445Z,355.35
2022-09-16T17:24:31.726Z,311.33
2022-09-16T17:27:00.305Z,306.75
2022-09-16T17:29:28.441Z,283.83
2022-09-16T17:31:57.200Z,266.38
2022-09-16T17:34:26.407Z,253.88
2022-09-16T17:36:54.651Z,241.93
2022-09-16T17:39:24.239Z,212.07
2022-09-16T17:41:52.245Z,216.82
2022-09-16T17:44:20.439Z,222.15
2022-09-16T17:46:48.849Z,216.65
2022-09-16T17:49:17.791Z,221.43
2022-09-16T17:51:46.168Z,203.02
2022-09-16T17:54:14.282Z,203.40
2022-09-16T17:56:44.162Z,200.13
2022-09-16T17:59:12.497Z,199.50
2022-09-16T18:01:40.837Z,191.05
2022-09-16T18:04:08.881Z,194.43
2022-09-16T18:06:41.786Z,181.25
2022-09-16T18:09:09.996Z,214.57
2022-09-16T18:11:38.751Z,263.60
2022-09-16T18:14:09.325Z,306.98
2022-09-16T18:16:37.578Z,289.88
2022-09-16T18:19:05.809Z,304.70
2022-09-16T18:21:34.078Z,281.98
2022-09-16T18:24:03.653Z,267.25
2022-09-16T18:26:31.788Z,254.68
2022-09-16T18:29:10.449Z,244.50
2022-09-16T18:31:41.289Z,244.27
2022-09-16T18:34:10.307Z,240.95
2022-09-16T18:36:39.496Z,236.30
2022-09-16T18:39:08.857Z,235.38
2022-09-16T18:41:38.314Z,226.68
2022-09-16T18:44:07.731Z,228.10
2022-09-16T18:46:38.347Z,219.88
2022-09-16T18:49:08.845Z,224.18
2022-09-16T18:51:37.918Z,217.07
2022-09-16T18:54:07.507Z,228.65
2022-09-16T18:56:36.627Z,141.52
2022-09-16T18:59:23.704Z,225.32
2022-09-16T19:01:53.014Z,224.55
2022-09-16T19:04:24.044Z,215.73
2022-09-16T19:06:54.033Z,216.52
2022-09-16T19:09:23.461Z,209.43
2022-09-16T19:11:55.198Z,199.35
2022-09-16T19:14:27.463Z,200.82
2022-09-16T19:16:56.024Z,201.98
2022-09-16T19:19:25.994Z,202.02
2022-09-16T19:21:54.262Z,196.73
2022-09-16T19:24:24.139Z,196.95
2022-09-16T19:26:54.019Z,197.73
2022-09-16T19:29:23.503Z,198.73
2022-09-16T19:31:53.052Z,192.07
2022-09-16T19:34:21.515Z,172.07
2022-09-16T19:36:51.799Z,220.55
2022-09-16T19:39:21.301Z,328.83
2022-09-16T19:41:49.761Z,286.20
2022-09-16T19:44:18.750Z,296.38
2022-09-16T19:46:49.463Z,264.02
2022-09-16T19:49:20.029Z,251.68
2022-09-16T19:51:48.488Z,250.63
2022-09-16T19:54:18.584Z,247.43
2022-09-16T19:56:50.403Z,240.35
2022-09-16T19:59:19.767Z,236.23
2022-09-16T20:01:48.129Z,234.60
2022-09-16T20:04:19.995Z,237.55
2022-09-16T20:06:48.454Z,226.13
2022-09-16T20:09:18.172Z,235.77
2022-09-16T20:11:47.997Z,224.35
2022-09-16T20:14:19.103Z,226.20
2022-09-16T20:16:47.614Z,211.25
2022-09-16T20:19:16.809Z,212.82
2022-09-16T20:21:45.456Z,189.88
2022-09-16T20:24:15.411Z,188.80
2022-09-16T20:26:45.021Z,189.18
2022-09-16T20:29:13.058Z,188.52
2022-09-16T20:31:41.206Z,182.48
2022-09-16T20:34:09.261Z,171.43
2022-09-16T20:36:38.232Z,135.43
2022-09-16T20:39:06.381Z,89.55
2022-09-16T20:41:35.069Z,130.13
2022-09-16T20:44:05.262Z,126.25
2022-09-16T20:46:34.127Z,124.22
2022-09-16T20:49:03.415Z,117.13
2022-09-16T20:51:32.511Z,109.85
2022-09-16T20:54:06.263Z,114.80
2022-09-16T20:56:38.229Z,101.88
2022-09-16T20:59:08.765Z,100.57
2022-09-16T21:01:37.359Z,95.18
2022-09-16T21:04:06.041Z,91.32
2022-09-16T21:06:34.729Z,84.32
2022-09-16T21:09:04.582Z,81.00
2022-09-16T21:11:33.260Z,77.78
2022-09-16T21:14:02.149Z,75.00
2022-09-16T21:16:32.280Z,72.72
2022-09-16T21:19:03.254Z,71.28
2022-09-16T21:21:31.762Z,66.55
2022-09-16T21:24:00.497Z,64.43
2022-09-16T21:26:29.708Z,63.25
2022-09-16T21:28:58.634Z,61.95
2022-09-16T21:31:28.369Z,60.53
2022-09-16T21:33:59.087Z,56.85
2022-09-16T21:36:27.941Z,53.90
2022-09-16T21:38:56.059Z,54.35
2022-09-16T21:41:24.534Z,54.40
2022-09-16T21:43:55.518Z,50.65
2022-09-16T21:46:25.872Z,46.45
2022-09-16T21:48:55.049Z,46.28
2022-09-16T21:51:24.680Z,46.42
2022-09-16T21:53:52.776Z,44.63
2022-09-16T21:56:21.954Z,43.72
2022-09-16T21:58:50.721Z,43.40
2022-09-16T22:01:19.966Z,37.85
2022-09-16T22:03:49.094Z,39.45
2022-09-16T22:06:18.383Z,37.53
2022-09-16T22:08:49.090Z,35.55
2022-09-16T22:11:18.590Z,36.95
2022-09-16T22:13:46.736Z,34.92
2022-09-16T22:16:15.685Z,34.60
2022-09-16T22:18:43.853Z,31.77
2022-09-16T22:21:14.525Z,30.90
2022-09-16T22:23:42.798Z,30.13
2022-09-16T22:26:13.507Z,31.20
2022-09-16T22:28:41.770Z,29.98
2022-09-16T22:31:10.271Z,27.63
2022-09-16T22:33:39.144Z,28.92
2022-09-16T22:36:09.043Z,26.52
2022-09-16T22:38:37.402Z,24.48
2022-09-16T22:41:06.515Z,23.98
2022-09-16T22:43:36.983Z,23.30
2022-09-16T22:46:05.915Z,23.20
2022-09-16T22:48:33.982Z,23.00
2022-09-16T22:51:02.358Z,23.85
2022-09-16T22:53:30.611Z,24.52
2022-09-16T22:55:59.151Z,21.50
2022-09-16T22:58:27.358Z,20.95
2022-09-16T23:01:03.090Z,21.05
2022-09-16T23:03:31.450Z,19.15
2022-09-16T23:06:00.525Z,19.08
2022-09-16T23:08:28.906Z,17.63
2022-09-16T23:10:57.033Z,18.58
2022-09-16T23:13:25.378Z,17.92
2022-09-16T23:15:54.844Z,18.13
2022-09-16T23:18:24.538Z,16.23
2022-09-16T23:20:59.491Z,15.30
2022-09-16T23:23:27.811Z,15.05
2022-09-16T23:25:55.941Z,17.38
2022-09-16T23:28:24.244Z,14.70
2022-09-16T23:30:52.685Z,14.70
2022-09-16T23:33:20.792Z,13.77
2022-09-16T23:35:51.211Z,14.05
2022-09-16T23:38:19.259Z,14.02
2022-09-16T23:40:47.913Z,13.57
2022-09-16T23:43:16.002Z,13.23
2022-09-16T23:45:44.144Z,12.43
2022-09-16T23:48:12.198Z,11.93
2022-09-16T23:50:40.293Z,12.15
2022-09-16T23:53:09.851Z,11.45
2022-09-16T23:55:42.047Z,10.93
2022-09-16T23:58:10.297Z,10.68
